sensor_id;sensor_type;location;lat;lon;timestamp;temperature;humidity
24148;DHT22;12309;51.450;-2.624;2022-10-16T00:01:26;13.00;99.90
24148;DHT22;12309;51.450;-2.624;2022-10-16T00:03:52;13.10;99.90
24148;DHT22;12309;51.450;-2.624;2022-10-16T00:06:19;12.80;99.90
24148;DHT22;12309;51.450;-2.624;2022-10-16T00:08:46;13.00;99.90
24148;DHT22;12309;51.450;-2.624;2022-10-16T00:11:13;13.00;99.90
24148;DHT22;12309;51.450;-2.624;2022-10-16T00:13:40;12.90;99.90
24148;DHT22;12309;51.450;-2.624;2022-10-16T00:18:32;12.90;99.90
24148;DHT22;12309;51.450;-2.624;2022-10-16T00:21:04;12.80;99.90
24148;DHT22;12309;51.450;-2.624;2022-10-16T00:23:31;12.80;99.90
24148;DHT22;12309;51.450;-2.624;2022-10-16T00:26:02;12.50;99.90
24148;DHT22;12309;51.450;-2.624;2022-10-16T00:28:28;12.70;99.90
24148;DHT22;12309;51.450;-2.624;2022-10-16T00:30:54;13.10;99.90
24148;DHT22;12309;51.450;-2.624;2022-10-16T00:33:20;12.50;99.90
24148;DHT22;12309;51.450;-2.624;2022-10-16T00:35:47;12.70;99.90
24148;DHT22;12309;51.450;-2.624;2022-10-16T00:40:39;12.60;99.90
24148;DHT22;12309;51.450;-2.624;2022-10-16T00:45:56;12.60;99.90
24148;DHT22;12309;51.450;-2.624;2022-10-16T00:48:22;12.70;99.90
24148;DHT22;12309;51.450;-2.624;2022-10-16T00:50:47;12.70;99.90
24148;DHT22;12309;51.450;-2.624;2022-10-16T00:53:13;12.30;99.90
24148;DHT22;12309;51.450;-2.624;2022-10-16T00:55:39;12.60;99.90
24148;DHT22;12309;51.450;-2.624;2022-10-16T00:58:05;12.50;99.90
24148;DHT22;12309;51.450;-2.624;2022-10-16T01:00:31;12.40;99.90
24148;DHT22;12309;51.450;-2.624;2022-10-16T01:02:59;12.50;99.90
24148;DHT22;12309;51.450;-2.624;2022-10-16T01:05:54;12.40;99.90
24148;DHT22;12309;51.450;-2.624;2022-10-16T01:08:33;12.40;99.90
24148;DHT22;12309;51.450;-2.624;2022-10-16T01:11:14;12.70;99.90
24148;DHT22;12309;51.450;-2.624;2022-10-16T01:13:46;12.40;99.90
24148;DHT22;12309;51.450;-2.624;2022-10-16T01:16:16;12.30;99.90
24148;DHT22;12309;51.450;-2.624;2022-10-16T01:21:13;12.70;99.90
24148;DHT22;12309;51.450;-2.624;2022-10-16T01:30:07;12.20;99.90
24148;DHT22;12309;51.450;-2.624;2022-10-16T01:32:40;12.20;99.90
24148;DHT22;12309;51.450;-2.624;2022-10-16T01:35:14;12.20;99.90
24148;DHT22;12309;51.450;-2.624;2022-10-16T01:37:48;12.00;99.90
24148;DHT22;12309;51.450;-2.624;2022-10-16T01:40:19;12.10;99.90
24148;DHT22;12309;51.450;-2.624;2022-10-16T01:42:55;12.20;99.90
24148;DHT22;12309;51.450;-2.624;2022-10-16T01:45:22;11.60;99.90
24148;DHT22;12309;51.450;-2.624;2022-10-16T01:47:49;12.00;99.90
24148;DHT22;12309;51.450;-2.624;2022-10-16T01:50:18;12.30;99.90
24148;DHT22;12309;51.450;-2.624;2022-10-16T01:52:48;12.10;99.90
24148;DHT22;12309;51.450;-2.624;2022-10-16T01:55:20;12.30;99.90
24148;DHT22;12309;51.450;-2.624;2022-10-16T01:57:49;12.70;99.90
24148;DHT22;12309;51.450;-2.624;2022-10-16T02:00:17;12.00;99.90
24148;DHT22;12309;51.450;-2.624;2022-10-16T02:02:47;12.10;99.90
24148;DHT22;12309;51.450;-2.624;2022-10-16T02:05:30;11.90;99.90
24148;DHT22;12309;51.450;-2.624;2022-10-16T02:07:56;12.00;99.90
24148;DHT22;12309;51.450;-2.624;2022-10-16T02:10:24;11.80;99.90
24148;DHT22;12309;51.450;-2.624;2022-10-16T02:12:56;11.90;99.90
24148;DHT22;12309;51.450;-2.624;2022-10-16T02:15:23;12.00;99.90
24148;DHT22;12309;51.450;-2.624;2022-10-16T02:17:48;12.00;99.90
24148;DHT22;12309;51.450;-2.624;2022-10-16T02:22:46;11.90;99.90
24148;DHT22;12309;51.450;-2.624;2022-10-16T02:25:31;12.00;99.90
24148;DHT22;12309;51.450;-2.624;2022-10-16T02:28:04;11.70;99.90
24148;DHT22;12309;51.450;-2.624;2022-10-16T02:30:41;11.60;99.90
24148;DHT22;12309;51.450;-2.624;2022-10-16T02:33:10;11.80;99.90
24148;DHT22;12309;51.450;-2.624;2022-10-16T02:35:37;11.70;99.90
24148;DHT22;12309;51.450;-2.624;2022-10-16T02:38:04;11.60;99.90
24148;DHT22;12309;51.450;-2.624;2022-10-16T02:40:30;12.10;99.90
24148;DHT22;12309;51.450;-2.624;2022-10-16T02:45:22;11.80;99.90
24148;DHT22;12309;51.450;-2.624;2022-10-16T02:47:49;11.70;99.90
24148;DHT22;12309;51.450;-2.624;2022-10-16T02:50:15;11.80;99.90
24148;DHT22;12309;51.450;-2.624;2022-10-16T02:52:41;11.90;99.90
24148;DHT22;12309;51.450;-2.624;2022-10-16T02:55:06;11.90;99.90
24148;DHT22;12309;51.450;-2.624;2022-10-16T02:57:32;11.70;99.90
24148;DHT22;12309;51.450;-2.624;2022-10-16T02:59:58;11.60;99.90
24148;DHT22;12309;51.450;-2.624;2022-10-16T03:02:24;11.50;99.90
24148;DHT22;12309;51.450;-2.624;2022-10-16T03:04:50;11.60;99.90
24148;DHT22;12309;51.450;-2.624;2022-10-16T03:07:15;12.00;99.90
24148;DHT22;12309;51.450;-2.624;2022-10-16T03:12:07;11.70;99.90
24148;DHT22;12309;51.450;-2.624;2022-10-16T03:14:33;11.60;99.90
24148;DHT22;12309;51.450;-2.624;2022-10-16T03:16:59;11.60;99.90
24148;DHT22;12309;51.450;-2.624;2022-10-16T03:21:50;11.50;99.90
24148;DHT22;12309;51.450;-2.624;2022-10-16T03:24:16;11.60;99.90
24148;DHT22;12309;51.450;-2.624;2022-10-16T03:26:41;11.70;99.90
24148;DHT22;12309;51.450;-2.624;2022-10-16T03:29:07;11.60;99.90
24148;DHT22;12309;51.450;-2.624;2022-10-16T03:31:33;11.70;99.90
24148;DHT22;12309;51.450;-2.624;2022-10-16T03:34:18;12.80;99.90
24148;DHT22;12309;51.450;-2.624;2022-10-16T03:36:43;11.80;99.90
24148;DHT22;12309;51.450;-2.624;2022-10-16T03:39:09;11.60;99.90
24148;DHT22;12309;51.450;-2.624;2022-10-16T03:41:34;11.50;99.90
24148;DHT22;12309;51.450;-2.624;2022-10-16T03:44:00;11.40;99.90
24148;DHT22;12309;51.450;-2.624;2022-10-16T03:48:51;10.90;99.90
24148;DHT22;12309;51.450;-2.624;2022-10-16T03:51:17;11.00;99.90
24148;DHT22;12309;51.450;-2.624;2022-10-16T03:56:09;11.30;99.90
24148;DHT22;12309;51.450;-2.624;2022-10-16T04:01:00;10.90;99.90
24148;DHT22;12309;51.450;-2.624;2022-10-16T04:03:26;10.90;99.90
24148;DHT22;12309;51.450;-2.624;2022-10-16T04:05:51;11.10;99.90
24148;DHT22;12309;51.450;-2.624;2022-10-16T04:08:17;11.10;99.90
24148;DHT22;12309;51.450;-2.624;2022-10-16T04:10:43;10.90;99.90
24148;DHT22;12309;51.450;-2.624;2022-10-16T04:18:01;10.60;99.90
24148;DHT22;12309;51.450;-2.624;2022-10-16T04:20:27;10.60;99.90
24148;DHT22;12309;51.450;-2.624;2022-10-16T04:22:53;10.60;99.90
24148;DHT22;12309;51.450;-2.624;2022-10-16T04:25:18;11.00;99.90
24148;DHT22;12309;51.450;-2.624;2022-10-16T04:27:44;10.60;99.90
24148;DHT22;12309;51.450;-2.624;2022-10-16T04:30:10;10.60;99.90
24148;DHT22;12309;51.450;-2.624;2022-10-16T04:32:35;10.40;99.90
24148;DHT22;12309;51.450;-2.624;2022-10-16T04:37:28;10.60;99.90
24148;DHT22;12309;51.450;-2.624;2022-10-16T04:42:20;10.40;99.90
24148;DHT22;12309;51.450;-2.624;2022-10-16T04:44:46;10.70;99.90
24148;DHT22;12309;51.450;-2.624;2022-10-16T04:49:38;10.90;99.90
24148;DHT22;12309;51.450;-2.624;2022-10-16T04:52:03;11.20;99.90
24148;DHT22;12309;51.450;-2.624;2022-10-16T04:56:55;11.20;99.90
24148;DHT22;12309;51.450;-2.624;2022-10-16T04:59:21;10.90;99.90
24148;DHT22;12309;51.450;-2.624;2022-10-16T05:06:40;11.40;99.90
24148;DHT22;12309;51.450;-2.624;2022-10-16T05:09:06;11.10;99.90
24148;DHT22;12309;51.450;-2.624;2022-10-16T05:11:32;11.20;99.90
24148;DHT22;12309;51.450;-2.624;2022-10-16T05:16:23;11.00;99.90
24148;DHT22;12309;51.450;-2.624;2022-10-16T05:18:50;10.90;99.90
24148;DHT22;12309;51.450;-2.624;2022-10-16T05:21:16;11.10;99.90
24148;DHT22;12309;51.450;-2.624;2022-10-16T05:26:08;10.80;99.90
24148;DHT22;12309;51.450;-2.624;2022-10-16T05:28:34;11.30;99.90
24148;DHT22;12309;51.450;-2.624;2022-10-16T05:31:06;11.20;99.90
24148;DHT22;12309;51.450;-2.624;2022-10-16T05:33:32;11.00;99.90
24148;DHT22;12309;51.450;-2.624;2022-10-16T05:36:02;10.90;99.90
24148;DHT22;12309;51.450;-2.624;2022-10-16T05:38:28;10.90;99.90
24148;DHT22;12309;51.450;-2.624;2022-10-16T05:40:54;10.80;99.90
24148;DHT22;12309;51.450;-2.624;2022-10-16T05:43:20;10.90;99.90
24148;DHT22;12309;51.450;-2.624;2022-10-16T05:46:11;10.80;99.90
24148;DHT22;12309;51.450;-2.624;2022-10-16T05:51:05;10.50;99.90
24148;DHT22;12309;51.450;-2.624;2022-10-16T05:53:34;11.00;99.90
24148;DHT22;12309;51.450;-2.624;2022-10-16T05:56:00;10.70;99.90
24148;DHT22;12309;51.450;-2.624;2022-10-16T05:58:31;10.80;99.90
24148;DHT22;12309;51.450;-2.624;2022-10-16T06:01:12;10.80;99.90
24148;DHT22;12309;51.450;-2.624;2022-10-16T06:03:39;10.70;99.90
24148;DHT22;12309;51.450;-2.624;2022-10-16T06:06:12;10.80;99.90
24148;DHT22;12309;51.450;-2.624;2022-10-16T06:08:39;10.80;99.90
24148;DHT22;12309;51.450;-2.624;2022-10-16T06:11:07;11.00;99.90
24148;DHT22;12309;51.450;-2.624;2022-10-16T06:16:00;10.90;99.90
24148;DHT22;12309;51.450;-2.624;2022-10-16T06:18:27;10.70;99.90
24148;DHT22;12309;51.450;-2.624;2022-10-16T06:20:53;10.90;99.90
24148;DHT22;12309;51.450;-2.624;2022-10-16T06:25:45;11.00;99.90
24148;DHT22;12309;51.450;-2.624;2022-10-16T06:30:36;10.90;99.90
24148;DHT22;12309;51.450;-2.624;2022-10-16T06:37:54;10.50;99.90
24148;DHT22;12309;51.450;-2.624;2022-10-16T06:40:20;10.50;99.90
24148;DHT22;12309;51.450;-2.624;2022-10-16T06:42:45;10.20;99.90
24148;DHT22;12309;51.450;-2.624;2022-10-16T06:50:04;10.00;99.90
24148;DHT22;12309;51.450;-2.624;2022-10-16T06:52:32;10.00;99.90
24148;DHT22;12309;51.450;-2.624;2022-10-16T06:57:24;10.40;99.90
24148;DHT22;12309;51.450;-2.624;2022-10-16T06:59:50;10.20;99.90
24148;DHT22;12309;51.450;-2.624;2022-10-16T07:04:42;10.10;99.90
24148;DHT22;12309;51.450;-2.624;2022-10-16T07:14:25;10.00;99.90
24148;DHT22;12309;51.450;-2.624;2022-10-16T07:16:51;10.30;99.90
24148;DHT22;12309;51.450;-2.624;2022-10-16T07:19:16;9.90;99.90
24148;DHT22;12309;51.450;-2.624;2022-10-16T07:21:43;10.20;99.90
24148;DHT22;12309;51.450;-2.624;2022-10-16T07:24:14;10.20;99.90
24148;DHT22;12309;51.450;-2.624;2022-10-16T07:26:41;10.20;99.90
24148;DHT22;12309;51.450;-2.624;2022-10-16T07:29:12;9.90;99.90
24148;DHT22;12309;51.450;-2.624;2022-10-16T07:31:39;10.30;99.90
24148;DHT22;12309;51.450;-2.624;2022-10-16T07:34:05;10.40;99.90
24148;DHT22;12309;51.450;-2.624;2022-10-16T07:36:31;10.30;99.90
24148;DHT22;12309;51.450;-2.624;2022-10-16T07:41:22;10.60;99.90
24148;DHT22;12309;51.450;-2.624;2022-10-16T07:43:50;10.60;99.90
24148;DHT22;12309;51.450;-2.624;2022-10-16T07:46:16;10.60;99.90
24148;DHT22;12309;51.450;-2.624;2022-10-16T07:48:43;10.80;99.90
24148;DHT22;12309;51.450;-2.624;2022-10-16T07:51:14;10.90;99.90
24148;DHT22;12309;51.450;-2.624;2022-10-16T07:56:07;11.00;99.90
24148;DHT22;12309;51.450;-2.624;2022-10-16T07:58:34;11.00;99.90
24148;DHT22;12309;51.450;-2.624;2022-10-16T08:01:09;11.10;99.90
24148;DHT22;12309;51.450;-2.624;2022-10-16T08:06:02;9.50;99.90
24148;DHT22;12309;51.450;-2.624;2022-10-16T08:08:28;13.60;99.90
24148;DHT22;12309;51.450;-2.624;2022-10-16T08:10:54;13.40;99.90
24148;DHT22;12309;51.450;-2.624;2022-10-16T08:13:20;13.30;99.90
24148;DHT22;12309;51.450;-2.624;2022-10-16T08:15:46;13.10;99.90
24148;DHT22;12309;51.450;-2.624;2022-10-16T08:18:13;12.80;99.90
24148;DHT22;12309;51.450;-2.624;2022-10-16T08:20:39;12.80;99.90
24148;DHT22;12309;51.450;-2.624;2022-10-16T08:23:06;12.50;99.90
24148;DHT22;12309;51.450;-2.624;2022-10-16T08:25:34;12.60;99.90
24148;DHT22;12309;51.450;-2.624;2022-10-16T08:28:00;12.50;99.90
24148;DHT22;12309;51.450;-2.624;2022-10-16T08:30:25;12.80;99.90
24148;DHT22;12309;51.450;-2.624;2022-10-16T08:32:51;12.70;99.90
24148;DHT22;12309;51.450;-2.624;2022-10-16T08:35:17;12.40;99.90
24148;DHT22;12309;51.450;-2.624;2022-10-16T08:37:43;13.00;99.90
24148;DHT22;12309;51.450;-2.624;2022-10-16T08:40:26;12.80;99.90
24148;DHT22;12309;51.450;-2.624;2022-10-16T08:48:23;12.90;99.90
24148;DHT22;12309;51.450;-2.624;2022-10-16T08:50:52;13.00;99.90
24148;DHT22;12309;51.450;-2.624;2022-10-16T08:53:24;13.10;99.90
24148;DHT22;12309;51.450;-2.624;2022-10-16T08:55:53;13.50;99.90
24148;DHT22;12309;51.450;-2.624;2022-10-16T08:58:21;13.20;99.90
24148;DHT22;12309;51.450;-2.624;2022-10-16T09:00:50;13.30;99.90
24148;DHT22;12309;51.450;-2.624;2022-10-16T09:06:35;13.50;99.90
24148;DHT22;12309;51.450;-2.624;2022-10-16T09:11:59;13.90;99.90
24148;DHT22;12309;51.450;-2.624;2022-10-16T09:20:28;13.90;99.90
24148;DHT22;12309;51.450;-2.624;2022-10-16T09:25:47;14.10;99.90
24148;DHT22;12309;51.450;-2.624;2022-10-16T09:28:13;14.60;99.90
24148;DHT22;12309;51.450;-2.624;2022-10-16T09:30:40;14.30;99.90
24148;DHT22;12309;51.450;-2.624;2022-10-16T09:33:06;14.70;99.90
24148;DHT22;12309;51.450;-2.624;2022-10-16T09:35:38;14.60;99.90
24148;DHT22;12309;51.450;-2.624;2022-10-16T09:38:06;15.90;99.90
24148;DHT22;12309;51.450;-2.624;2022-10-16T09:40:37;15.10;99.90
24148;DHT22;12309;51.450;-2.624;2022-10-16T09:45:59;15.60;99.90
24148;DHT22;12309;51.450;-2.624;2022-10-16T09:48:33;15.70;99.90
24148;DHT22;12309;51.450;-2.624;2022-10-16T09:51:01;15.70;99.90
24148;DHT22;12309;51.450;-2.624;2022-10-16T09:53:42;15.80;99.90
24148;DHT22;12309;51.450;-2.624;2022-10-16T09:56:10;16.20;99.90
24148;DHT22;12309;51.450;-2.624;2022-10-16T09:58:42;16.30;99.90
24148;DHT22;12309;51.450;-2.624;2022-10-16T10:01:15;16.30;99.90
24148;DHT22;12309;51.450;-2.624;2022-10-16T10:03:43;15.80;99.90
24148;DHT22;12309;51.450;-2.624;2022-10-16T10:06:28;16.00;99.90
24148;DHT22;12309;51.450;-2.624;2022-10-16T10:08:55;15.90;99.90
24148;DHT22;12309;51.450;-2.624;2022-10-16T10:11:45;16.00;99.90
24148;DHT22;12309;51.450;-2.624;2022-10-16T10:16:50;16.40;99.90
24148;DHT22;12309;51.450;-2.624;2022-10-16T10:19:21;16.40;99.90
24148;DHT22;12309;51.450;-2.624;2022-10-16T10:21:47;16.70;99.90
24148;DHT22;12309;51.450;-2.624;2022-10-16T10:24:14;16.90;99.90
24148;DHT22;12309;51.450;-2.624;2022-10-16T10:26:53;17.00;99.90
24148;DHT22;12309;51.450;-2.624;2022-10-16T10:32:20;17.00;99.90
24148;DHT22;12309;51.450;-2.624;2022-10-16T10:37:40;17.80;99.90
24148;DHT22;12309;51.450;-2.624;2022-10-16T10:40:51;18.30;99.90
24148;DHT22;12309;51.450;-2.624;2022-10-16T10:46:12;17.80;99.90
24148;DHT22;12309;51.450;-2.624;2022-10-16T11:00:34;21.40;99.90
24148;DHT22;12309;51.450;-2.624;2022-10-16T11:03:31;21.90;99.90
24148;DHT22;12309;51.450;-2.624;2022-10-16T11:06:07;26.20;99.90
24148;DHT22;12309;51.450;-2.624;2022-10-16T11:11:29;27.30;99.90
24148;DHT22;12309;51.450;-2.624;2022-10-16T11:14:38;28.60;99.90
24148;DHT22;12309;51.450;-2.624;2022-10-16T11:17:08;28.50;99.90
24148;DHT22;12309;51.450;-2.624;2022-10-16T11:22:56;27.30;99.90
24148;DHT22;12309;51.450;-2.624;2022-10-16T11:25:31;27.70;99.90
24148;DHT22;12309;51.450;-2.624;2022-10-16T11:28:20;28.80;99.90
24148;DHT22;12309;51.450;-2.624;2022-10-16T11:30:51;28.20;99.90
24148;DHT22;12309;51.450;-2.624;2022-10-16T11:35:57;27.80;99.90
24148;DHT22;12309;51.450;-2.624;2022-10-16T11:44:24;27.20;99.90
24148;DHT22;12309;51.450;-2.624;2022-10-16T11:55:20;27.90;99.90
24148;DHT22;12309;51.450;-2.624;2022-10-16T11:58:01;25.80;99.90
24148;DHT22;12309;51.450;-2.624;2022-10-16T12:03:26;26.80;99.90
24148;DHT22;12309;51.450;-2.624;2022-10-16T12:06:23;26.20;99.90
24148;DHT22;12309;51.450;-2.624;2022-10-16T12:08:52;27.30;99.90
24148;DHT22;12309;51.450;-2.624;2022-10-16T12:11:33;28.90;99.90
24148;DHT22;12309;51.450;-2.624;2022-10-16T12:16:51;27.00;99.90
24148;DHT22;12309;51.450;-2.624;2022-10-16T12:19:19;24.00;99.90
24148;DHT22;12309;51.450;-2.624;2022-10-16T12:21:45;24.90;99.90
24148;DHT22;12309;51.450;-2.624;2022-10-16T12:24:29;26.20;99.90
24148;DHT22;12309;51.450;-2.624;2022-10-16T12:26:56;27.50;99.90
24148;DHT22;12309;51.450;-2.624;2022-10-16T12:31:48;22.30;99.90
24148;DHT22;12309;51.450;-2.624;2022-10-16T12:39:36;19.80;99.90
24148;DHT22;12309;51.450;-2.624;2022-10-16T12:42:04;21.20;99.90
24148;DHT22;12309;51.450;-2.624;2022-10-16T12:44:35;21.90;99.90
24148;DHT22;12309;51.450;-2.624;2022-10-16T12:47:02;20.40;99.90
24148;DHT22;12309;51.450;-2.624;2022-10-16T12:51:53;20.00;99.90
24148;DHT22;12309;51.450;-2.624;2022-10-16T12:54:27;20.40;99.90
24148;DHT22;12309;51.450;-2.624;2022-10-16T13:05:21;19.30;99.90
24148;DHT22;12309;51.450;-2.624;2022-10-16T13:27:39;21.10;99.90
24148;DHT22;12309;51.450;-2.624;2022-10-16T13:30:17;19.70;99.90
24148;DHT22;12309;51.450;-2.624;2022-10-16T13:33:24;19.00;99.90
24148;DHT22;12309;51.450;-2.624;2022-10-16T13:35:56;19.10;99.90
24148;DHT22;12309;51.450;-2.624;2022-10-16T13:38:30;19.10;99.90
24148;DHT22;12309;51.450;-2.624;2022-10-16T13:41:17;19.90;99.90
24148;DHT22;12309;51.450;-2.624;2022-10-16T13:43:50;19.90;99.90
24148;DHT22;12309;51.450;-2.624;2022-10-16T13:46:20;20.00;99.90
24148;DHT22;12309;51.450;-2.624;2022-10-16T13:49:13;19.50;99.90
24148;DHT22;12309;51.450;-2.624;2022-10-16T13:51:39;19.30;99.90
24148;DHT22;12309;51.450;-2.624;2022-10-16T13:54:04;19.60;99.90
24148;DHT22;12309;51.450;-2.624;2022-10-16T13:56:32;19.20;99.90
24148;DHT22;12309;51.450;-2.624;2022-10-16T13:59:27;19.40;99.90
24148;DHT22;12309;51.450;-2.624;2022-10-16T14:01:58;20.90;99.90
24148;DHT22;12309;51.450;-2.624;2022-10-16T14:04:29;20.60;99.90
24148;DHT22;12309;51.450;-2.624;2022-10-16T14:06:55;20.10;99.90
24148;DHT22;12309;51.450;-2.624;2022-10-16T14:09:27;19.40;99.90
24148;DHT22;12309;51.450;-2.624;2022-10-16T14:14:22;19.50;99.90
24148;DHT22;12309;51.450;-2.624;2022-10-16T14:16:48;19.60;99.90
24148;DHT22;12309;51.450;-2.624;2022-10-16T14:19:21;19.70;99.90
24148;DHT22;12309;51.450;-2.624;2022-10-16T14:21:49;19.70;99.90
24148;DHT22;12309;51.450;-2.624;2022-10-16T14:24:32;18.60;99.90
24148;DHT22;12309;51.450;-2.624;2022-10-16T14:26:59;18.10;99.90
24148;DHT22;12309;51.450;-2.624;2022-10-16T14:29:27;17.90;99.90
24148;DHT22;12309;51.450;-2.624;2022-10-16T14:32:05;18.00;99.90
24148;DHT22;12309;51.450;-2.624;2022-10-16T14:34:36;17.80;99.90
24148;DHT22;12309;51.450;-2.624;2022-10-16T14:37:23;17.80;99.90
24148;DHT22;12309;51.450;-2.624;2022-10-16T14:39:51;17.40;99.90
24148;DHT22;12309;51.450;-2.624;2022-10-16T14:42:18;17.20;99.90
24148;DHT22;12309;51.450;-2.624;2022-10-16T14:44:45;17.50;99.90
24148;DHT22;12309;51.450;-2.624;2022-10-16T14:47:16;17.00;99.90
24148;DHT22;12309;51.450;-2.624;2022-10-16T14:49:47;16.90;99.90
24148;DHT22;12309;51.450;-2.624;2022-10-16T14:52:13;17.10;99.90
24148;DHT22;12309;51.450;-2.624;2022-10-16T14:54:40;17.40;99.90
24148;DHT22;12309;51.450;-2.624;2022-10-16T14:57:21;17.10;99.90
24148;DHT22;12309;51.450;-2.624;2022-10-16T14:59:48;17.10;99.90
24148;DHT22;12309;51.450;-2.624;2022-10-16T15:02:31;17.30;99.90
24148;DHT22;12309;51.450;-2.624;2022-10-16T15:04:58;17.40;99.90
24148;DHT22;12309;51.450;-2.624;2022-10-16T15:07:26;17.00;99.90
24148;DHT22;12309;51.450;-2.624;2022-10-16T15:09:52;17.10;99.90
24148;DHT22;12309;51.450;-2.624;2022-10-16T15:12:19;16.80;99.90
24148;DHT22;12309;51.450;-2.624;2022-10-16T15:14:44;17.00;99.90
24148;DHT22;12309;51.450;-2.624;2022-10-16T15:17:11;16.90;99.90
24148;DHT22;12309;51.450;-2.624;2022-10-16T15:19:36;16.90;99.90
24148;DHT22;12309;51.450;-2.624;2022-10-16T15:22:02;16.70;99.90
24148;DHT22;12309;51.450;-2.624;2022-10-16T15:24:28;16.80;99.90
24148;DHT22;12309;51.450;-2.624;2022-10-16T15:26:54;16.80;99.90
24148;DHT22;12309;51.450;-2.624;2022-10-16T15:29:19;16.90;99.90
24148;DHT22;12309;51.450;-2.624;2022-10-16T15:31:45;17.20;99.90
24148;DHT22;12309;51.450;-2.624;2022-10-16T15:34:13;16.60;99.90
24148;DHT22;12309;51.450;-2.624;2022-10-16T15:36:40;16.70;99.90
24148;DHT22;12309;51.450;-2.624;2022-10-16T15:39:23;16.80;99.90
24148;DHT22;12309;51.450;-2.624;2022-10-16T15:44:17;16.60;99.90
24148;DHT22;12309;51.450;-2.624;2022-10-16T15:46:42;16.70;99.90
24148;DHT22;12309;51.450;-2.624;2022-10-16T15:49:09;16.90;99.90
24148;DHT22;12309;51.450;-2.624;2022-10-16T15:51:39;16.70;99.90
24148;DHT22;12309;51.450;-2.624;2022-10-16T15:54:05;16.50;99.90
24148;DHT22;12309;51.450;-2.624;2022-10-16T15:56:30;16.80;99.90
24148;DHT22;12309;51.450;-2.624;2022-10-16T15:58:59;16.40;99.90
24148;DHT22;12309;51.450;-2.624;2022-10-16T16:01:25;16.70;99.90
24148;DHT22;12309;51.450;-2.624;2022-10-16T16:03:55;16.30;99.90
24148;DHT22;12309;51.450;-2.624;2022-10-16T16:06:22;16.60;99.90
24148;DHT22;12309;51.450;-2.624;2022-10-16T16:08:50;16.20;99.90
24148;DHT22;12309;51.450;-2.624;2022-10-16T16:11:16;16.30;99.90
24148;DHT22;12309;51.450;-2.624;2022-10-16T16:16:10;16.30;99.90
24148;DHT22;12309;51.450;-2.624;2022-10-16T16:18:36;16.20;99.90
24148;DHT22;12309;51.450;-2.624;2022-10-16T16:21:03;16.10;99.90
24148;DHT22;12309;51.450;-2.624;2022-10-16T16:28:39;15.90;99.90
24148;DHT22;12309;51.450;-2.624;2022-10-16T16:31:05;15.70;99.90
24148;DHT22;12309;51.450;-2.624;2022-10-16T16:33:31;16.00;99.90
24148;DHT22;12309;51.450;-2.624;2022-10-16T16:35:58;15.90;99.90
24148;DHT22;12309;51.450;-2.624;2022-10-16T16:38:25;16.10;99.90
24148;DHT22;12309;51.450;-2.624;2022-10-16T16:43:17;15.80;99.90
24148;DHT22;12309;51.450;-2.624;2022-10-16T16:45:43;15.70;99.90
24148;DHT22;12309;51.450;-2.624;2022-10-16T16:48:09;15.70;99.90
24148;DHT22;12309;51.450;-2.624;2022-10-16T16:50:37;15.50;99.90
24148;DHT22;12309;51.450;-2.624;2022-10-16T16:53:03;15.60;99.90
24148;DHT22;12309;51.450;-2.624;2022-10-16T16:57:55;15.40;99.90
24148;DHT22;12309;51.450;-2.624;2022-10-16T17:00:22;15.20;99.90
24148;DHT22;12309;51.450;-2.624;2022-10-16T17:02:49;13.30;99.90
24148;DHT22;12309;51.450;-2.624;2022-10-16T17:07:40;15.10;99.90
24148;DHT22;12309;51.450;-2.624;2022-10-16T17:10:07;15.30;99.90
24148;DHT22;12309;51.450;-2.624;2022-10-16T17:17:25;15.10;99.90
24148;DHT22;12309;51.450;-2.624;2022-10-16T17:19:51;14.90;99.90
24148;DHT22;12309;51.450;-2.624;2022-10-16T17:22:18;14.70;99.90
24148;DHT22;12309;51.450;-2.624;2022-10-16T17:27:11;14.90;99.90
24148;DHT22;12309;51.450;-2.624;2022-10-16T17:29:37;15.00;99.90
24148;DHT22;12309;51.450;-2.624;2022-10-16T17:32:02;14.90;99.90
24148;DHT22;12309;51.450;-2.624;2022-10-16T17:34:28;14.90;99.90
24148;DHT22;12309;51.450;-2.624;2022-10-16T17:36:54;15.00;99.90
24148;DHT22;12309;51.450;-2.624;2022-10-16T17:39:19;14.80;99.90
24148;DHT22;12309;51.450;-2.624;2022-10-16T17:41:46;14.80;99.90
24148;DHT22;12309;51.450;-2.624;2022-10-16T17:44:13;14.70;99.90
24148;DHT22;12309;51.450;-2.624;2022-10-16T17:46:45;14.60;99.90
24148;DHT22;12309;51.450;-2.624;2022-10-16T17:49:11;14.40;99.90
24148;DHT22;12309;51.450;-2.624;2022-10-16T17:51:37;14.40;99.90
24148;DHT22;12309;51.450;-2.624;2022-10-16T17:54:03;14.70;99.90
24148;DHT22;12309;51.450;-2.624;2022-10-16T17:56:29;14.30;99.90
24148;DHT22;12309;51.450;-2.624;2022-10-16T17:58:57;14.30;99.90
24148;DHT22;12309;51.450;-2.624;2022-10-16T18:01:31;14.30;99.90
24148;DHT22;12309;51.450;-2.624;2022-10-16T18:04:00;14.70;99.90
24148;DHT22;12309;51.450;-2.624;2022-10-16T18:06:26;14.30;99.90
24148;DHT22;12309;51.450;-2.624;2022-10-16T18:08:53;14.30;99.90
24148;DHT22;12309;51.450;-2.624;2022-10-16T18:11:20;14.30;99.90
24148;DHT22;12309;51.450;-2.624;2022-10-16T18:13:46;14.10;99.90
24148;DHT22;12309;51.450;-2.624;2022-10-16T18:16:13;14.30;99.90
24148;DHT22;12309;51.450;-2.624;2022-10-16T18:18:41;13.90;99.90
24148;DHT22;12309;51.450;-2.624;2022-10-16T18:21:08;14.20;99.90
24148;DHT22;12309;51.450;-2.624;2022-10-16T18:23:36;14.20;99.90
24148;DHT22;12309;51.450;-2.624;2022-10-16T18:26:03;14.20;99.90
24148;DHT22;12309;51.450;-2.624;2022-10-16T18:28:30;14.10;99.90
24148;DHT22;12309;51.450;-2.624;2022-10-16T18:33:22;14.20;99.90
24148;DHT22;12309;51.450;-2.624;2022-10-16T18:35:47;14.30;99.90
24148;DHT22;12309;51.450;-2.624;2022-10-16T18:38:13;14.20;99.90
24148;DHT22;12309;51.450;-2.624;2022-10-16T18:40:39;14.30;99.90
24148;DHT22;12309;51.450;-2.624;2022-10-16T18:43:04;14.10;99.90
24148;DHT22;12309;51.450;-2.624;2022-10-16T18:45:30;14.40;99.90
24148;DHT22;12309;51.450;-2.624;2022-10-16T18:47:56;14.20;99.90
24148;DHT22;12309;51.450;-2.624;2022-10-16T18:50:22;14.30;99.90
24148;DHT22;12309;51.450;-2.624;2022-10-16T18:52:48;14.20;99.90
24148;DHT22;12309;51.450;-2.624;2022-10-16T18:55:14;14.40;99.90
24148;DHT22;12309;51.450;-2.624;2022-10-16T19:02:32;14.50;99.90
24148;DHT22;12309;51.450;-2.624;2022-10-16T19:07:24;14.30;99.90
24148;DHT22;12309;51.450;-2.624;2022-10-16T19:12:16;14.20;99.90
24148;DHT22;12309;51.450;-2.624;2022-10-16T19:14:41;14.40;99.90
24148;DHT22;12309;51.450;-2.624;2022-10-16T19:19:33;14.40;99.90
24148;DHT22;12309;51.450;-2.624;2022-10-16T19:24:43;14.70;99.90
24148;DHT22;12309;51.450;-2.624;2022-10-16T19:29:35;14.60;99.90
24148;DHT22;12309;51.450;-2.624;2022-10-16T19:32:01;15.00;99.90
24148;DHT22;12309;51.450;-2.624;2022-10-16T19:34:28;14.60;99.90
24148;DHT22;12309;51.450;-2.624;2022-10-16T19:36:54;14.70;99.90
24148;DHT22;12309;51.450;-2.624;2022-10-16T19:39:20;14.50;99.90
24148;DHT22;12309;51.450;-2.624;2022-10-16T19:41:46;14.80;99.90
24148;DHT22;12309;51.450;-2.624;2022-10-16T19:44:14;14.60;99.90